Time;durP1;ratioP1;P1;durP2;ratioP2;P2;SDS_P1;SDS_P2;PMS_P1;PMS_P2;Temp;Humidity;BMP_temperature;BMP_pressure;BME280_temperature;BME280_humidity;BME280_pressure;Samples;Min_cycle;Max_cycle;Signal;HPM_P1;HPM_P2
2022/08/31 00:04:04;;;;;;;2.60;0.85;;;16.50;99.90;;;;;;4991343;28;20456;-86
2022/08/31 00:06:32;;;;;;;4.80;1.30;;;16.50;99.90;;;;;;4991909;28;20038;-87
2022/08/31 00:08:58;;;;;;;3.42;1.10;;;16.50;99.90;;;;;;4990835;28;20042;-86
2022/08/31 00:11:28;;;;;;;3.83;1.00;;;16.50;99.90;;;;;;5006840;28;20046;-86
2022/08/31 00:14:01;;;;;;;4.28;1.10;;;16.50;99.90;;;;;;5005779;28;20061;-86
2022/08/31 00:16:29;;;;;;;2.53;1.02;;;16.40;99.90;;;;;;4991871;28;20043;-87
2022/08/31 00:18:55;;;;;;;1.92;0.90;;;16.40;99.90;;;;;;4989605;28;20416;-86
2022/08/31 00:21:25;;;;;;;2.30;0.90;;;16.40;99.90;;;;;;4974072;28;20049;-87
2022/08/31 00:23:51;;;;;;;2.35;0.80;;;16.40;99.90;;;;;;5005390;28;20062;-88
2022/08/31 00:26:17;;;;;;;3.13;1.20;;;16.40;99.90;;;;;;4990382;28;20423;-87
2022/08/31 00:28:44;;;;;;;1.42;0.80;;;16.40;99.90;;;;;;4991496;28;20395;-87
2022/08/31 00:31:10;;;;;;;5.18;1.00;;;16.40;99.90;;;;;;4991333;28;20042;-86
2022/08/31 00:33:35;;;;;;;3.65;1.00;;;16.40;99.90;;;;;;5006677;28;20133;-87
2022/08/31 00:36:03;;;;;;;2.05;0.80;;;16.30;99.90;;;;;;4990879;28;20038;-86
2022/08/31 00:38:29;;;;;;;3.35;1.00;;;16.30;99.90;;;;;;5005913;28;20054;-86
2022/08/31 00:40:54;;;;;;;2.50;0.90;;;16.30;99.90;;;;;;4990236;28;20514;-88
2022/08/31 00:43:46;;;;;;;2.47;0.95;;;16.30;99.90;;;;;;4991098;28;20495;-88
2022/08/31 00:46:15;;;;;;;2.92;0.90;;;16.30;99.90;;;;;;4973705;28;20038;-87
2022/08/31 00:48:47;;;;;;;1.90;0.90;;;16.30;99.90;;;;;;4973831;28;20046;-87
2022/08/31 00:51:13;;;;;;;1.92;0.73;;;16.30;99.90;;;;;;5005878;28;20112;-89
2022/08/31 00:53:39;;;;;;;2.08;0.82;;;16.30;99.90;;;;;;5005517;28;20046;-85
2022/08/31 00:56:04;;;;;;;2.38;0.93;;;16.30;99.90;;;;;;5004908;28;20050;-87
2022/08/31 00:58:30;;;;;;;2.90;0.82;;;16.30;99.90;;;;;;5005602;28;20065;-86
2022/08/31 01:00:58;;;;;;;2.67;1.08;;;16.30;99.90;;;;;;5005345;28;20399;-86
2022/08/31 01:03:24;;;;;;;2.33;0.90;;;16.20;99.90;;;;;;5005578;28;20050;-87
2022/08/31 01:05:50;;;;;;;2.88;0.77;;;16.30;99.90;;;;;;4989806;28;20396;-87
2022/08/31 01:08:16;;;;;;;8.30;1.42;;;16.20;99.90;;;;;;4990216;28;20080;-86
2022/08/31 01:10:44;;;;;;;2.53;0.90;;;16.20;99.90;;;;;;5005668;28;20101;-86
2022/08/31 01:13:12;;;;;;;2.72;1.00;;;16.10;99.90;;;;;;4990328;28;20117;-86
2022/08/31 01:15:51;;;;;;;1.77;0.73;;;16.10;99.90;;;;;;4989312;28;20495;-87
2022/08/31 01:18:17;;;;;;;1.52;0.75;;;16.10;99.90;;;;;;4989325;28;20038;-86
2022/08/31 01:20:47;;;;;;;2.15;0.90;;;16.00;99.90;;;;;;4989852;28;20042;-88
2022/08/31 01:23:33;;;;;;;2.83;1.10;;;16.00;99.90;;;;;;4990258;28;20085;-88
2022/08/31 01:26:00;;;;;;;2.47;0.90;;;15.90;99.90;;;;;;4989521;28;20038;-87
2022/08/31 01:28:26;;;;;;;1.38;0.80;;;15.90;99.90;;;;;;4990460;28;20042;-86
2022/08/31 01:31:26;;;;;;;2.45;0.82;;;15.80;99.90;;;;;;5004794;28;20089;-86
2022/08/31 01:33:52;;;;;;;1.92;0.90;;;15.80;99.90;;;;;;4977814;28;20140;-86
2022/08/31 01:36:19;;;;;;;4.45;1.05;;;15.70;99.90;;;;;;4972329;28;20121;-89
2022/08/31 01:38:45;;;;;;;1.98;0.70;;;15.70;99.90;;;;;;5004797;28;20053;-85
2022/08/31 01:41:11;;;;;;;1.60;0.70;;;15.60;99.90;;;;;;4990042;28;20137;-90
2022/08/31 01:43:36;;;;;;;2.47;0.93;;;15.60;99.90;;;;;;4988971;28;20113;-86
2022/08/31 01:46:04;;;;;;;2.33;0.82;;;15.60;99.90;;;;;;4987991;28;20046;-86
2022/08/31 01:48:31;;;;;;;1.13;0.70;;;15.50;99.90;;;;;;4990431;28;20042;-86
2022/08/31 01:50:56;;;;;;;2.13;0.80;;;15.50;99.90;;;;;;4971595;28;20053;-86
2022/08/31 01:53:22;;;;;;;1.92;0.80;;;15.40;99.90;;;;;;4990740;28;20515;-86
2022/08/31 01:55:48;;;;;;;1.98;0.80;;;15.40;99.90;;;;;;5005063;28;20042;-86
2022/08/31 01:58:14;;;;;;;1.67;0.70;;;15.30;99.90;;;;;;4989522;28;20136;-86
2022/08/31 02:00:40;;;;;;;2.92;0.95;;;15.30;99.90;;;;;;5005443;28;20038;-86
2022/08/31 02:03:06;;;;;;;2.45;0.80;;;15.30;99.90;;;;;;5004086;28;20046;-86
2022/08/31 02:05:34;;;;;;;0.88;0.60;;;15.20;99.90;;;;;;4972479;28;20050;-85
2022/08/31 02:08:00;;;;;;;1.75;0.70;;;15.20;99.90;;;;;;4989170;28;20050;-89
2022/08/31 02:10:26;;;;;;;0.98;0.70;;;15.10;99.90;;;;;;4988845;28;20057;-87
2022/08/31 02:12:52;;;;;;;1.23;0.70;;;15.10;99.90;;;;;;5004240;28;20639;-85
2022/08/31 02:15:18;;;;;;;2.28;0.80;;;15.00;99.90;;;;;;5006778;28;20042;-86
2022/08/31 02:17:43;;;;;;;2.20;0.88;;;15.00;99.90;;;;;;4992477;28;20049;-89
2022/08/31 02:20:11;;;;;;;1.63;0.70;;;14.90;99.90;;;;;;5008318;28;20148;-88
2022/08/31 02:22:37;;;;;;;2.80;0.68;;;14.90;99.90;;;;;;4976547;28;20046;-89
2022/08/31 02:25:04;;;;;;;2.38;0.70;;;14.90;99.90;;;;;;5007886;28;20049;-85
2022/08/31 02:27:30;;;;;;;1.40;0.70;;;14.80;99.90;;;;;;4994038;28;20097;-87
2022/08/31 02:29:55;;;;;;;2.58;0.80;;;14.70;99.90;;;;;;4992949;28;20488;-87
2022/08/31 02:32:21;;;;;;;0.85;0.60;;;14.70;99.90;;;;;;5009039;28;20050;-88
2022/08/31 02:34:48;;;;;;;2.55;0.85;;;14.70;99.90;;;;;;4992679;28;20034;-86
2022/08/31 02:37:14;;;;;;;1.63;0.80;;;14.60;99.90;;;;;;5008271;28;20146;-88
2022/08/31 02:39:40;;;;;;;0.88;0.60;;;14.60;99.90;;;;;;5008494;28;20201;-89
2022/08/31 02:42:05;;;;;;;1.60;0.70;;;14.50;99.90;;;;;;5007936;28;20108;-86
2022/08/31 02:44:31;;;;;;;0.80;0.60;;;14.50;99.90;;;;;;4992485;28;20054;-89
2022/08/31 02:46:57;;;;;;;1.52;0.70;;;14.50;99.90;;;;;;4975087;28;20519;-88
2022/08/31 02:49:22;;;;;;;1.70;0.70;;;14.50;99.90;;;;;;4993016;28;20042;-88
2022/08/31 02:51:48;;;;;;;3.03;0.80;;;14.40;99.90;;;;;;4991563;28;20057;-87
2022/08/31 02:54:14;;;;;;;1.40;0.65;;;14.40;99.90;;;;;;4992932;28;20038;-88
2022/08/31 02:56:40;;;;;;;2.13;0.90;;;14.30;99.90;;;;;;5008387;28;20092;-88
2022/08/31 02:59:06;;;;;;;2.92;0.82;;;14.30;99.90;;;;;;4974782;28;20166;-86
2022/08/31 03:01:31;;;;;;;2.55;0.90;;;14.30;99.90;;;;;;4993195;28;20048;-85
2022/08/31 03:03:59;;;;;;;1.33;0.80;;;14.20;99.90;;;;;;4991864;28;20431;-88
2022/08/31 03:06:25;;;;;;;1.42;0.80;;;14.20;99.90;;;;;;5008130;28;20049;-87
2022/08/31 03:08:50;;;;;;;1.95;0.77;;;14.20;99.90;;;;;;4992053;28;20117;-86
2022/08/31 03:11:17;;;;;;;2.03;0.82;;;14.10;99.90;;;;;;5008286;28;20039;-87
2022/08/31 03:13:43;;;;;;;1.98;0.80;;;14.10;99.90;;;;;;4991596;28;20459;-86
2022/08/31 03:16:12;;;;;;;1.88;0.90;;;14.00;99.90;;;;;;4992383;28;20306;-86
2022/08/31 03:18:37;;;;;;;2.38;1.00;;;14.00;99.90;;;;;;4990913;28;20053;-87
2022/08/31 03:21:03;;;;;;;2.35;0.80;;;14.00;99.90;;;;;;4990839;28;20395;-87
2022/08/31 03:23:29;;;;;;;2.33;0.90;;;13.90;99.90;;;;;;4975336;28;20380;-86
2022/08/31 03:25:54;;;;;;;1.48;0.90;;;13.90;99.90;;;;;;5006577;28;20130;-86
2022/08/31 03:28:20;;;;;;;1.25;0.80;;;13.90;99.90;;;;;;4992751;28;20046;-88
2022/08/31 03:30:45;;;;;;;3.38;1.10;;;13.90;99.90;;;;;;5007044;28;20050;-86
2022/08/31 03:33:11;;;;;;;2.22;1.00;;;13.90;99.90;;;;;;4974478;28;20042;-88
2022/08/31 03:35:42;;;;;;;1.77;1.00;;;13.90;99.90;;;;;;4992583;28;20537;-88
2022/08/31 03:38:08;;;;;;;3.00;0.95;;;13.90;99.90;;;;;;4991691;28;20046;-86
2022/08/31 03:40:34;;;;;;;2.20;1.00;;;13.80;99.90;;;;;;5007533;28;20034;-86
2022/08/31 03:42:59;;;;;;;2.05;1.02;;;13.80;99.90;;;;;;4990294;28;20074;-86
2022/08/31 03:45:26;;;;;;;2.75;1.10;;;13.80;99.90;;;;;;5007271;28;20073;-87
2022/08/31 03:47:52;;;;;;;3.47;1.10;;;13.70;99.90;;;;;;4991613;28;20141;-86
2022/08/31 03:50:18;;;;;;;2.97;1.00;;;13.70;99.90;;;;;;5007394;28;20095;-87
2022/08/31 03:52:43;;;;;;;3.28;1.20;;;13.70;99.90;;;;;;5007164;28;20807;-86
2022/08/31 03:55:10;;;;;;;3.55;1.13;;;13.70;99.90;;;;;;5007010;28;20490;-87
2022/08/31 03:57:36;;;;;;;3.72;1.25;;;13.60;99.90;;;;;;4990984;28;20086;-85
2022/08/31 04:00:04;;;;;;;2.55;1.00;;;13.70;99.90;;;;;;4972902;28;20447;-86
2022/08/31 04:02:30;;;;;;;2.17;1.10;;;13.60;99.90;;;;;;5007364;28;20422;-86
2022/08/31 04:04:56;;;;;;;3.35;1.23;;;13.60;99.90;;;;;;5006223;28;20046;-88
2022/08/31 04:07:21;;;;;;;2.17;1.10;;;13.60;99.90;;;;;;4991759;28;20100;-87
2022/08/31 04:09:48;;;;;;;2.35;1.20;;;13.50;99.90;;;;;;5006252;28;20042;-86
2022/08/31 04:12:15;;;;;;;2.35;1.10;;;13.50;99.90;;;;;;4992057;28;20468;-86
2022/08/31 04:14:41;;;;;;;3.75;1.17;;;13.50;99.90;;;;;;4991321;28;20049;-88
2022/08/31 04:17:10;;;;;;;4.47;1.42;;;13.40;99.90;;;;;;4973301;28;20192;-85
2022/08/31 04:19:36;;;;;;;3.50;1.20;;;13.40;99.90;;;;;;5006766;28;20042;-87
2022/08/31 04:22:01;;;;;;;1.95;1.08;;;13.30;99.90;;;;;;5005923;28;20061;-87
2022/08/31 04:24:28;;;;;;;4.20;1.27;;;13.30;99.90;;;;;;4991844;28;20129;-87
2022/08/31 04:26:53;;;;;;;4.53;1.27;;;13.30;99.90;;;;;;5005808;28;20046;-86
2022/08/31 04:29:19;;;;;;;3.85;1.20;;;13.30;99.90;;;;;;5006101;28;20052;-86
2022/08/31 04:31:45;;;;;;;2.08;1.10;;;13.30;99.90;;;;;;4973578;28;20066;-88
2022/08/31 04:34:11;;;;;;;4.22;1.35;;;13.20;99.90;;;;;;5006485;28;20461;-87
2022/08/31 04:36:38;;;;;;;3.05;1.35;;;13.20;99.90;;;;;;4989704;28;20133;-87
2022/08/31 04:39:05;;;;;;;3.85;1.35;;;13.20;99.90;;;;;;5004914;28;20073;-87
2022/08/31 04:41:32;;;;;;;3.45;1.60;;;13.20;99.90;;;;;;4991497;28;20054;-88
2022/08/31 04:43:59;;;;;;;4.03;1.20;;;13.20;99.90;;;;;;4989867;28;20117;-86
2022/08/31 04:46:26;;;;;;;4.07;1.30;;;13.10;99.90;;;;;;5006560;28;20052;-87
2022/08/31 04:48:51;;;;;;;3.63;1.70;;;13.20;99.90;;;;;;4990622;28;20046;-88
2022/08/31 04:51:25;;;;;;;4.35;1.45;;;13.20;99.90;;;;;;4991319;28;20042;-90
2022/08/31 04:53:52;;;;;;;4.20;1.60;;;13.20;99.90;;;;;;5005354;28;20092;-86
2022/08/31 04:56:21;;;;;;;4.68;1.40;;;13.20;99.90;;;;;;4990022;28;20070;-87
2022/08/31 04:58:50;;;;;;;3.05;1.40;;;13.20;99.90;;;;;;5004618;28;20058;-87
2022/08/31 05:01:18;;;;;;;4.18;1.52;;;13.20;99.90;;;;;;4989719;28;20046;-90
2022/08/31 05:03:44;;;;;;;4.05;1.50;;;13.20;99.90;;;;;;4973220;28;20050;-87
2022/08/31 05:06:15;;;;;;;3.90;1.40;;;13.20;99.90;;;;;;4973025;28;20054;-86
2022/08/31 05:08:41;;;;;;;5.28;1.65;;;13.20;99.90;;;;;;4991065;28;20400;-87
2022/08/31 05:11:16;;;;;;;3.88;1.40;;;13.20;99.90;;;;;;4989741;28;20097;-85
2022/08/31 05:13:42;;;;;;;5.25;1.70;;;13.30;99.90;;;;;;4990291;28;20045;-87
2022/08/31 05:16:10;;;;;;;4.65;1.42;;;13.30;99.90;;;;;;5004869;28;20129;-87
2022/08/31 05:18:40;;;;;;;4.28;1.63;;;13.30;99.90;;;;;;5005888;28;20038;-86
2022/08/31 05:21:11;;;;;;;2.45;1.20;;;13.30;99.90;;;;;;4989967;28;20039;-87
2022/08/31 05:23:37;;;;;;;3.47;1.60;;;13.30;99.90;;;;;;5005675;28;20054;-86
2022/08/31 05:26:03;;;;;;;3.90;1.50;;;13.40;99.90;;;;;;4972326;28;20101;-87
2022/08/31 05:28:28;;;;;;;2.75;1.50;;;13.40;99.90;;;;;;5005403;28;20050;-90
2022/08/31 05:30:56;;;;;;;10.07;1.70;;;13.40;99.90;;;;;;5004996;28;20046;-87
2022/08/31 05:33:22;;;;;;;4.70;1.30;;;13.40;99.90;;;;;;5005530;28;20161;-87
2022/08/31 05:35:47;;;;;;;2.90;1.40;;;13.50;99.90;;;;;;4988764;28;20074;-88
2022/08/31 05:38:13;;;;;;;3.90;1.48;;;13.50;99.90;;;;;;4972559;28;20554;-87
2022/08/31 05:40:38;;;;;;;4.45;1.42;;;13.60;99.90;;;;;;4989416;28;20415;-88
2022/08/31 05:43:04;;;;;;;5.55;1.60;;;13.60;99.90;;;;;;5003938;28;20104;-87
2022/08/31 05:45:29;;;;;;;4.32;1.42;;;13.70;99.90;;;;;;5005564;28;20038;-89
2022/08/31 05:47:55;;;;;;;3.22;1.30;;;13.70;99.90;;;;;;5004330;28;20097;-89
2022/08/31 05:50:21;;;;;;;3.75;1.50;;;13.80;99.90;;;;;;5005245;28;20483;-89
2022/08/31 05:52:46;;;;;;;3.85;1.50;;;13.80;99.90;;;;;;5004906;28;20137;-87
2022/08/31 05:55:12;;;;;;;3.47;1.40;;;13.80;99.90;;;;;;4972820;28;20038;-89
2022/08/31 05:57:39;;;;;;;3.92;1.60;;;13.80;99.90;;;;;;4989887;28;20046;-88
2022/08/31 06:00:07;;;;;;;3.45;1.38;;;13.90;99.90;;;;;;4953000;28;20141;-88
2022/08/31 06:02:34;;;;;;;3.33;1.45;;;14.00;99.90;;;;;;4971220;28;20086;-90
2022/08/31 06:05:00;;;;;;;3.58;1.48;;;14.00;99.90;;;;;;4952494;28;20154;-86
2022/08/31 06:07:25;;;;;;;4.00;1.70;;;14.10;99.90;;;;;;4953318;28;20126;-88
2022/08/31 06:09:51;;;;;;;4.15;1.55;;;14.20;99.90;;;;;;4970237;28;20472;-88
2022/08/31 06:12:19;;;;;;;3.72;1.27;;;14.30;99.90;;;;;;4985155;28;20047;-87
2022/08/31 06:14:45;;;;;;;3.85;1.38;;;14.30;99.90;;;;;;4952768;28;20051;-88
2022/08/31 06:17:11;;;;;;;4.82;1.40;;;14.40;99.90;;;;;;4985084;28;20046;-86
2022/08/31 06:19:37;;;;;;;5.40;1.52;;;14.50;99.90;;;;;;4985745;28;20051;-87
2022/08/31 06:22:04;;;;;;;5.05;1.38;;;14.60;99.90;;;;;;4985011;28;20473;-87
2022/08/31 06:24:29;;;;;;;2.80;1.23;;;14.70;99.90;;;;;;4985771;28;20047;-87
2022/08/31 06:26:57;;;;;;;5.00;1.40;;;14.80;99.90;;;;;;4967693;28;20038;-88
2022/08/31 06:29:23;;;;;;;2.20;1.30;;;14.90;99.90;;;;;;4970688;28;20051;-88
2022/08/31 06:31:48;;;;;;;3.30;1.30;;;15.00;99.90;;;;;;4985061;28;20035;-87
2022/08/31 06:34:16;;;;;;;4.72;1.33;;;15.00;99.90;;;;;;4952774;28;20047;-87
2022/08/31 06:36:42;;;;;;;3.35;1.27;;;15.10;99.90;;;;;;4985112;28;20051;-87
2022/08/31 06:39:08;;;;;;;4.30;1.30;;;15.20;99.90;;;;;;4984865;28;20062;-87
2022/08/31 06:41:36;;;;;;;3.67;1.30;;;15.30;99.90;;;;;;4952753;28;20110;-86
2022/08/31 06:44:04;;;;;;;3.92;1.33;;;15.30;99.90;;;;;;4968530;28;20043;-86
2022/08/31 06:46:32;;;;;;;4.72;1.30;;;15.30;99.90;;;;;;4985434;28;20046;-88
2022/08/31 06:48:58;;;;;;;4.65;1.27;;;15.30;99.90;;;;;;4984311;28;20130;-87
2022/08/31 06:51:25;;;;;;;3.08;1.50;;;15.40;99.90;;;;;;4985228;28;20129;-86
2022/08/31 06:53:51;;;;;;;3.35;1.25;;;15.40;99.90;;;;;;4984319;28;20142;-87
2022/08/31 06:56:20;;;;;;;4.53;1.27;;;15.60;99.90;;;;;;4985092;28;20447;-86
2022/08/31 06:58:46;;;;;;;3.83;1.40;;;15.50;99.90;;;;;;4993430;28;20129;-88
2022/08/31 07:01:14;;;;;;;3.38;1.30;;;15.60;99.90;;;;;;4991338;28;20042;-87
2022/08/31 07:03:42;;;;;;;3.38;1.30;;;15.60;99.90;;;;;;4975627;28;20054;-88
2022/08/31 07:06:17;;;;;;;3.15;1.20;;;15.70;99.90;;;;;;4975235;28;20430;-87
2022/08/31 07:08:44;;;;;;;4.68;1.30;;;15.80;99.90;;;;;;5007470;28;20046;-86
2022/08/31 07:11:22;;;;;;;3.28;1.20;;;15.90;99.90;;;;;;4992736;28;20529;-85
2022/08/31 07:13:48;;;;;;;5.10;1.38;;;16.00;99.90;;;;;;5007742;28;20050;-88
2022/08/31 07:16:16;;;;;;;4.13;1.10;;;16.10;99.90;;;;;;5007927;28;20372;-86
2022/08/31 07:18:43;;;;;;;4.90;1.20;;;16.20;99.90;;;;;;4991513;28;20054;-87
2022/08/31 07:21:15;;;;;;;4.15;1.20;;;16.30;99.90;;;;;;4992381;28;20038;-86
2022/08/31 07:23:42;;;;;;;4.22;1.30;;;16.40;99.90;;;;;;5007497;28;20130;-88
2022/08/31 07:26:11;;;;;;;4.88;1.35;;;16.50;99.90;;;;;;5007378;28;20502;-87
2022/08/31 07:28:37;;;;;;;4.20;1.20;;;16.50;99.90;;;;;;5007985;28;20053;-85
2022/08/31 07:31:04;;;;;;;5.65;1.42;;;16.60;99.90;;;;;;4974273;28;20050;-87
2022/08/31 07:33:37;;;;;;;3.85;1.20;;;16.60;99.90;;;;;;4992647;28;20046;-88
2022/08/31 07:36:08;;;;;;;4.70;1.33;;;16.60;99.90;;;;;;5006580;28;20046;-89
2022/08/31 07:44:04;;;;;;;6.38;1.48;;;16.80;99.90;;;;;;4990330;28;20117;-88
2022/08/31 07:46:30;;;;;;;3.78;1.10;;;16.80;99.90;;;;;;4992522;28;20046;-88
2022/08/31 07:48:57;;;;;;;4.10;1.38;;;16.90;99.90;;;;;;4991602;28;20093;-86
2022/08/31 07:51:24;;;;;;;7.32;1.60;;;16.90;99.90;;;;;;4975206;28;20046;-85
2022/08/31 07:53:50;;;;;;;3.13;1.15;;;16.90;99.90;;;;;;4973697;28;20121;-85
2022/08/31 07:56:17;;;;;;;3.42;1.13;;;17.00;99.90;;;;;;4992617;28;20050;-89
2022/08/31 07:58:44;;;;;;;4.00;1.30;;;17.00;99.90;;;;;;5006774;28;20141;-84
2022/08/31 08:01:10;;;;;;;4.50;1.23;;;17.00;99.90;;;;;;4992824;28;20415;-85
2022/08/31 08:03:39;;;;;;;3.83;1.27;;;17.00;99.90;;;;;;5007279;28;20045;-88
2022/08/31 08:06:07;;;;;;;2.17;1.10;;;17.10;99.90;;;;;;5006260;28;20356;-87
2022/08/31 08:08:33;;;;;;;5.00;1.20;;;17.10;99.90;;;;;;5006527;28;20107;-86
2022/08/31 08:10:58;;;;;;;2.78;1.15;;;17.10;99.90;;;;;;4991042;28;20053;-86
2022/08/31 08:13:24;;;;;;;3.88;1.13;;;17.20;99.90;;;;;;4989778;28;20054;-86
2022/08/31 08:15:50;;;;;;;3.03;1.05;;;17.30;99.90;;;;;;4991127;28;20042;-85
2022/08/31 08:18:15;;;;;;;3.25;1.20;;;17.40;99.90;;;;;;4991860;28;20399;-86
2022/08/31 08:20:41;;;;;;;2.80;1.20;;;17.40;99.90;;;;;;4991723;28;20042;-84
2022/08/31 08:23:12;;;;;;;4.68;1.00;;;17.50;99.90;;;;;;4973246;28;20047;-86
2022/08/31 08:25:37;;;;;;;4.10;1.08;;;17.50;99.90;;;;;;4990536;28;20403;-91
2022/08/31 08:28:03;;;;;;;3.03;1.10;;;17.60;99.90;;;;;;4973478;28;20058;-87
2022/08/31 08:30:29;;;;;;;5.63;1.00;;;17.60;99.90;;;;;;5006832;28;20129;-87
2022/08/31 08:33:00;;;;;;;3.33;1.00;;;17.70;99.90;;;;;;4990686;28;20046;-86
2022/08/31 08:35:29;;;;;;;;;;;17.80;99.90;;;;;;5006994;28;20137;-85
2022/08/31 08:37:56;;;;;;;5.45;1.00;;;17.80;99.90;;;;;;4989269;28;19929;-87
2022/08/31 08:40:49;;;;;;;2.78;0.90;;;17.90;99.90;;;;;;4991302;28;20477;-86
2022/08/31 08:43:18;;;;;;;7.07;1.30;;;18.10;99.90;;;;;;4988439;28;20061;-84
2022/08/31 08:45:47;;;;;;;3.10;0.85;;;18.10;99.90;;;;;;5006156;28;20061;-86
2022/08/31 08:48:16;;;;;;;2.03;0.90;;;18.20;99.90;;;;;;5006099;28;20054;-90
2022/08/31 08:50:42;;;;;;;3.10;1.00;;;18.20;99.90;;;;;;4989454;28;20526;-86
2022/08/31 08:53:11;;;;;;;8.15;1.30;;;18.30;99.90;;;;;;5005343;28;20058;-86
2022/08/31 08:55:39;;;;;;;6.72;1.40;;;18.40;99.90;;;;;;4991368;28;20077;-86
2022/08/31 08:58:17;;;;;;;3.60;0.93;;;18.40;99.90;;;;;;4989914;28;20194;-84
2022/08/31 09:00:49;;;;;;;5.45;1.10;;;18.40;99.90;;;;;;4973630;28;20085;-87
2022/08/31 09:03:43;;;;;;;5.35;1.20;;;18.40;99.90;;;;;;4989781;28;20092;-85
2022/08/31 09:06:45;;;;;;;2.72;0.88;;;18.50;99.90;;;;;;4972480;28;20073;-86
2022/08/31 09:09:35;;;;;;;4.18;1.00;;;18.60;99.90;;;;;;5005619;28;20069;-88
2022/08/31 09:12:29;;;;;;;3.25;0.90;;;18.70;99.90;;;;;;5005194;28;20081;-89
2022/08/31 09:15:14;;;;;;;2.00;0.70;;;18.70;99.90;;;;;;4988653;28;20034;-86
2022/08/31 09:17:59;;;;;;;5.10;1.20;;;18.80;99.90;;;;;;4990509;28;20511;-83
2022/08/31 09:20:27;;;;;;;3.97;1.02;;;18.80;99.90;;;;;;4990495;28;20069;-88
2022/08/31 09:22:54;;;;;;;3.55;1.00;;;18.80;99.90;;;;;;4988575;28;20049;-88
2022/08/31 09:25:34;;;;;;;3.28;1.02;;;18.80;99.90;;;;;;4990460;28;20042;-87
2022/08/31 09:28:07;;;;;;;4.65;1.05;;;18.80;99.90;;;;;;5004535;28;20090;-84
2022/08/31 09:30:50;;;;;;;5.13;1.40;;;18.90;99.90;;;;;;5005864;28;20052;-85
2022/08/31 09:33:23;;;;;;;3.67;1.23;;;19.00;99.90;;;;;;5005654;28;20085;-85
2022/08/31 09:35:55;;;;;;;3.92;0.93;;;19.00;99.90;;;;;;5004611;28;20050;-91
2022/08/31 09:38:39;;;;;;;7.43;1.10;;;19.00;99.90;;;;;;5005638;28;20058;-86
2022/08/31 09:41:27;;;;;;;3.63;1.00;;;19.00;99.90;;;;;;4988570;28;20616;-88
2022/08/31 09:43:54;;;;;;;3.85;0.98;;;19.10;99.90;;;;;;5005091;28;20046;-89
2022/08/31 09:46:29;;;;;;;5.00;0.82;;;19.10;99.90;;;;;;4990636;28;20117;-86
2022/08/31 09:48:57;;;;;;;2.47;0.88;;;19.20;99.90;;;;;;4988979;28;20121;-86
2022/08/31 09:51:27;;;;;;;3.00;1.00;;;19.20;99.90;;;;;;4990128;28;20096;-86
2022/08/31 09:57:05;;;;;;;4.10;1.10;;;19.30;99.90;;;;;;4987894;28;20046;-89
2022/08/31 09:59:40;;;;;;;2.47;0.80;;;19.30;99.90;;;;;;4989976;28;20439;-87
2022/08/31 10:02:11;;;;;;;9.30;1.17;;;19.30;99.90;;;;;;4989448;28;20054;-84
2022/08/31 10:04:53;;;;;;;;;;;19.50;99.90;;;;;;4990125;28;20491;-87
2022/08/31 10:07:46;;;;;;;4.68;0.80;;;19.40;99.90;;;;;;4988968;28;19922;-87
2022/08/31 10:10:22;;;;;;;5.10;1.00;;;19.50;99.90;;;;;;5005090;28;20078;-87
2022/08/31 10:13:00;;;;;;;3.10;0.93;;;19.60;99.90;;;;;;4972362;28;20674;-86
2022/08/31 10:15:38;;;;;;;4.60;1.00;;;19.60;99.90;;;;;;5005112;28;20067;-86
2022/08/31 10:18:19;;;;;;;4.30;1.10;;;19.70;99.90;;;;;;5003646;28;20104;-89
2022/08/31 10:20:54;;;;;;;;;;;19.80;99.90;;;;;;4972300;28;20043;-86
2022/08/31 10:23:35;;;;;;;3.15;0.90;;;19.60;99.90;;;;;;4990457;28;19949;-85
2022/08/31 10:26:13;;;;;;;4.47;0.90;;;19.70;99.90;;;;;;5004187;28;20049;-88
2022/08/31 10:28:42;;;;;;;2.90;0.88;;;19.80;99.90;;;;;;4988625;28;20092;-86
2022/08/31 10:31:22;;;;;;;6.88;1.00;;;19.90;99.90;;;;;;4971496;28;20038;-87
2022/08/31 10:36:48;;;;;;;3.10;0.80;;;19.90;99.90;;;;;;4990661;28;20050;-87
2022/08/31 10:39:36;;;;;;;3.07;0.80;;;19.90;99.90;;;;;;4975946;28;20100;-85
2022/08/31 10:42:07;;;;;;;3.65;0.90;;;20.00;99.90;;;;;;5007912;28;20305;-87
2022/08/31 10:44:55;;;;;;;2.33;0.80;;;20.00;99.90;;;;;;4993536;28;20495;-86
2022/08/31 10:47:22;;;;;;;2.92;0.85;;;20.10;99.90;;;;;;4992908;28;20081;-85
2022/08/31 10:49:51;;;;;;;2.22;0.75;;;20.10;99.90;;;;;;4992801;28;20054;-88
2022/08/31 10:52:40;;;;;;;4.10;1.00;;;20.20;99.90;;;;;;5008453;28;20048;-86
2022/08/31 10:55:36;;;;;;;2.83;0.75;;;20.10;99.90;;;;;;4992624;28;20054;-84
2022/08/31 10:58:04;;;;;;;2.50;0.90;;;20.10;99.90;;;;;;5007319;28;20058;-87
2022/08/31 11:00:46;;;;;;;3.00;0.90;;;20.00;99.90;;;;;;4992911;28;20406;-87
2022/08/31 11:03:15;;;;;;;;;;;20.10;99.90;;;;;;4993337;28;20053;-85
2022/08/31 11:05:40;;;;;;;3.83;0.85;;;20.00;99.90;;;;;;4993290;28;20004;-85
2022/08/31 11:08:48;;;;;;;2.17;0.75;;;20.10;99.90;;;;;;4992116;28;20474;-88
2022/08/31 11:11:34;;;;;;;4.63;0.93;;;20.10;99.90;;;;;;4976609;28;20090;-86
2022/08/31 11:14:31;;;;;;;2.50;0.82;;;20.10;99.90;;;;;;4990832;28;20042;-87
2022/08/31 11:17:22;;;;;;;3.35;0.88;;;20.10;99.90;;;;;;5006646;28;20093;-89
2022/08/31 11:19:59;;;;;;;4.25;0.90;;;20.20;99.90;;;;;;4991300;28;20460;-88
2022/08/31 11:22:40;;;;;;;2.45;0.80;;;20.20;99.90;;;;;;4975298;28;20046;-87
2022/08/31 11:25:50;;;;;;;2.70;0.80;;;20.20;99.90;;;;;;4991943;28;20039;-86
2022/08/31 11:28:32;;;;;;;3.38;1.00;;;20.30;99.90;;;;;;4975204;28;20057;-85
2022/08/31 11:31:05;;;;;;;2.05;0.80;;;20.30;99.90;;;;;;5006496;28;20446;-87
2022/08/31 11:33:30;;;;;;;1.90;0.77;;;20.40;99.90;;;;;;5008045;28;20125;-86
2022/08/31 11:36:07;;;;;;;3.17;0.90;;;20.40;99.90;;;;;;4992063;28;20533;-84
2022/08/31 11:39:11;;;;;;;3.10;1.00;;;20.50;99.90;;;;;;5007766;28;20101;-87
2022/08/31 11:41:50;;;;;;;5.32;0.90;;;20.50;99.90;;;;;;4992222;28;20051;-90
2022/08/31 11:44:35;;;;;;;2.78;0.90;;;20.50;99.50;;;;;;4992230;28;20865;-87
2022/08/31 11:47:05;;;;;;;4.13;0.82;;;20.40;98.60;;;;;;4974325;28;20074;-89
2022/08/31 11:49:50;;;;;;;3.85;0.95;;;20.50;99.20;;;;;;5007777;28;20394;-85
2022/08/31 11:52:39;;;;;;;3.05;0.90;;;20.50;98.60;;;;;;5007418;28;20113;-85
2022/08/31 11:55:24;;;;;;;3.72;0.70;;;20.60;98.00;;;;;;4991382;28;20054;-85
2022/08/31 11:58:10;;;;;;;2.10;0.80;;;20.60;97.50;;;;;;5006318;28;20423;-87
2022/08/31 12:01:08;;;;;;;1.90;0.80;;;20.70;98.10;;;;;;4991599;28;20053;-88
2022/08/31 12:04:02;;;;;;;1.80;0.77;;;20.70;97.80;;;;;;4992124;28;20499;-87
2022/08/31 12:06:27;;;;;;;4.53;0.90;;;20.80;98.00;;;;;;4991929;28;20057;-86
2022/08/31 12:09:24;;;;;;;1.55;0.73;;;20.90;97.50;;;;;;5006134;28;20133;-87
2022/08/31 12:12:05;;;;;;;1.60;0.68;;;20.90;97.40;;;;;;5005919;28;20046;-86
2022/08/31 12:14:31;;;;;;;3.13;0.85;;;20.80;96.90;;;;;;4990183;28;20081;-89
2022/08/31 12:17:32;;;;;;;2.67;0.90;;;20.80;97.00;;;;;;5006273;28;20403;-88
2022/08/31 12:20:17;;;;;;;4.10;0.80;;;20.90;97.60;;;;;;5005922;28;20125;-87
2022/08/31 12:26:00;;;;;;;4.03;0.90;;;20.90;97.80;;;;;;4989601;28;20054;-87
2022/08/31 12:28:28;;;;;;;1.80;0.80;;;21.00;97.00;;;;;;4991253;28;20105;-88
2022/08/31 12:30:56;;;;;;;2.08;0.90;;;21.00;96.60;;;;;;4990553;28;20038;-91
2022/08/31 12:33:27;;;;;;;2.78;0.70;;;21.00;95.90;;;;;;4991458;28;20050;-86
2022/08/31 12:35:55;;;;;;;;;;;21.10;95.60;;;;;;5006270;28;20515;-85
2022/08/31 12:38:25;;;;;;;4.13;0.90;;;21.00;95.40;;;;;;4990193;28;19928;-86
2022/08/31 12:40:55;;;;;;;2.87;0.83;;;21.00;96.00;;;;;;5005668;28;20380;-87
2022/08/31 12:43:47;;;;;;;5.45;1.20;;;21.00;96.30;;;;;;4989775;28;20053;-85
2022/08/31 12:46:27;;;;;;;3.33;0.80;;;21.10;95.90;;;;;;4991280;28;20058;-86
2022/08/31 12:49:15;;;;;;;4.03;0.80;;;21.20;95.70;;;;;;4990676;28;20053;-88
2022/08/31 12:51:49;;;;;;;2.35;0.90;;;21.20;95.80;;;;;;4973762;28;20078;-86
2022/08/31 12:54:18;;;;;;;3.55;1.00;;;21.20;95.30;;;;;;4989475;28;20057;-87
2022/08/31 12:57:05;;;;;;;6.25;1.10;;;21.20;95.70;;;;;;4990433;28;20046;-86
2022/08/31 12:59:58;;;;;;;2.42;0.90;;;21.20;95.60;;;;;;5005269;28;20141;-89
2022/08/31 13:02:25;;;;;;;4.20;0.80;;;21.20;94.90;;;;;;5006008;28;20076;-85
2022/08/31 13:04:51;;;;;;;3.15;0.93;;;21.10;95.10;;;;;;4988525;28;20050;-86
2022/08/31 13:07:21;;;;;;;2.95;0.93;;;21.20;94.50;;;;;;4989877;28;20117;-83
2022/08/31 13:10:23;;;;;;;4.72;1.13;;;21.30;93.70;;;;;;5005729;28;20407;-89
2022/08/31 13:12:55;;;;;;;4.22;0.90;;;21.40;94.00;;;;;;4988376;28;20061;-89
2022/08/31 13:15:25;;;;;;;2.63;0.80;;;21.30;93.90;;;;;;5005689;28;20038;-86
2022/08/31 13:17:52;;;;;;;2.77;0.90;;;21.40;93.80;;;;;;4988450;28;20050;-83
2022/08/31 13:20:19;;;;;;;3.67;0.80;;;21.30;93.40;;;;;;5005925;28;20046;-84
2022/08/31 13:22:53;;;;;;;1.50;0.80;;;21.40;92.40;;;;;;4990059;28;20325;-84
2022/08/31 13:25:34;;;;;;;4.55;1.02;;;21.40;91.00;;;;;;5005782;28;20082;-86